Bacoor, Philippines
Current Conditions -  °F | °C
As of 9:00 PM on Saturday 20 Dec 2014 (Local Time) from RPLL Reporting Station
Rain Showers Rain Showers  
Wind Chill: 79°   Ceiling: 9000
Heat Index: 83°   Visibility: 6mi
Dew Point: 77°   Wind: 3mph
Humidity: 94%   Direction: 130°SE
Pressure: 29.91"   Gusts: NA
Location:  14.46°N, 120.94°E
Report Text: RPLL 201300Z 13003KT 080V170 9999 -SHRA SCT023 OVC090 26/25 Q1013 NOSIG RMK A2991
Loading
Personal Weather Stations






























Interactive Weather Map New forecast layout! Learn more

10-Day Weather Forecast

Advertisements
Track Severe Weather on mobile